Time;durP1;ratioP1;P1;durP2;ratioP2;P2;SDS_P1;SDS_P2;PMS_P1;PMS_P2;Temp;Humidity;BMP_temperature;BMP_pressure;BME280_temperature;BME280_humidity;BME280_pressure;Samples;Min_cycle;Max_cycle;Signal;HPM_P1;HPM_P2
2023/04/24 00:01:26;;;;;;;;;;;12.30;64.80;;;;;;5013309;28;20310;-77
2023/04/24 00:03:52;;;;;;;;;;;12.30;64.70;;;;;;5014087;28;19979;-76
2023/04/24 00:06:17;;;;;;;;;;;12.30;64.80;;;;;;5017123;28;20020;-77
2023/04/24 00:08:43;;;;;;;;;;;12.30;64.80;;;;;;5032563;28;19920;-76
2023/04/24 00:11:09;;;;;;;;;;;12.20;64.80;;;;;;5013368;28;19933;-76
2023/04/24 00:13:34;;;;;;;;;;;12.20;64.80;;;;;;4998477;28;19925;-76
2023/04/24 00:16:00;;;;;;;;;;;12.20;64.80;;;;;;5012353;28;19917;-76
2023/04/24 00:18:25;;;;;;;;;;;12.20;64.90;;;;;;5010276;28;19924;-77
2023/04/24 00:20:51;;;;;;;;;;;12.20;64.90;;;;;;5011904;28;19975;-76
2023/04/24 00:23:16;;;;;;;;;;;12.20;64.90;;;;;;5012267;28;19917;-76
2023/04/24 00:25:42;;;;;;;;;;;12.20;65.00;;;;;;5010925;28;20098;-77
2023/04/24 00:28:07;;;;;;;;;;;12.20;65.00;;;;;;5013100;28;19921;-76
2023/04/24 00:30:33;;;;;;;;;;;12.10;65.00;;;;;;5016786;28;20395;-76
2023/04/24 00:32:58;;;;;;;;;;;12.10;65.00;;;;;;5012086;28;19921;-77
2023/04/24 00:35:23;;;;;;;;;;;12.10;65.00;;;;;;5014143;28;19936;-76
2023/04/24 00:37:49;;;;;;;;;;;12.10;65.10;;;;;;4997465;28;19925;-76
2023/04/24 00:40:15;;;;;;;;;;;12.00;65.00;;;;;;5003002;28;19925;-77
2023/04/24 00:42:40;;;;;;;;;;;12.00;65.90;;;;;;5015657;28;19925;-76
2023/04/24 00:45:06;;;;;;;;;;;12.00;65.10;;;;;;5014123;28;20843;-76
2023/04/24 00:47:32;;;;;;;;;;;12.00;65.10;;;;;;5013224;28;19971;-76
2023/04/24 00:49:58;;;;;;;;;;;12.00;65.20;;;;;;4999019;28;20432;-76
2023/04/24 00:52:24;;;;;;;;;;;11.90;65.20;;;;;;5013792;28;20414;-77
2023/04/24 00:54:49;;;;;;;;;;;12.00;65.20;;;;;;5014670;28;19928;-77
2023/04/24 00:57:15;;;;;;;;;;;11.90;65.20;;;;;;5012033;28;19933;-76
2023/04/24 00:59:41;;;;;;;;;;;11.90;65.30;;;;;;5029555;28;19921;-77
2023/04/24 01:02:07;;;;;;;;;;;11.90;65.30;;;;;;5011386;28;19929;-77
2023/04/24 01:04:32;;;;;;;;;;;11.90;65.30;;;;;;5024886;28;19921;-77
2023/04/24 01:06:58;;;;;;;;;;;11.90;65.30;;;;;;5010839;28;19925;-76
2023/04/24 01:09:23;;;;;;;;;;;11.90;65.30;;;;;;5013990;28;19965;-76
2023/04/24 01:11:49;;;;;;;;;;;11.90;65.30;;;;;;5011061;28;19934;-77
2023/04/24 01:14:14;;;;;;;;;;;11.90;65.30;;;;;;5013881;28;19921;-76
2023/04/24 01:16:41;;;;;;;;;;;11.90;65.40;;;;;;5013670;28;19925;-77
2023/04/24 01:19:06;;;;;;;;;;;11.90;65.40;;;;;;5011765;28;19921;-76
2023/04/24 01:21:33;;;;;;;;;;;11.90;65.40;;;;;;5000591;28;19937;-76
2023/04/24 01:23:58;;;;;;;;;;;11.90;65.50;;;;;;5027178;28;19921;-77
2023/04/24 01:26:25;;;;;;;;;;;11.90;65.50;;;;;;5010915;28;19986;-77
2023/04/24 01:28:50;;;;;;;;;;;11.90;65.50;;;;;;5011493;28;19929;-77
2023/04/24 01:31:16;;;;;;;;;;;11.90;65.50;;;;;;5012701;28;19983;-77
2023/04/24 01:33:41;;;;;;;;;;;11.90;66.30;;;;;;5025139;28;19917;-76
2023/04/24 01:36:07;;;;;;;;;;;11.90;65.50;;;;;;4992886;28;19917;-77
2023/04/24 01:38:33;;;;;;;;;;;11.90;65.50;;;;;;5014572;28;20021;-77
2023/04/24 01:40:58;;;;;;;;;;;11.80;65.50;;;;;;5009503;28;19989;-76
2023/04/24 01:43:23;;;;;;;;;;;11.80;65.50;;;;;;5011094;28;20039;-77
2023/04/24 01:45:49;;;;;;;;;;;11.80;65.60;;;;;;5011038;28;19921;-76
2023/04/24 01:48:14;;;;;;;;;;;11.80;65.50;;;;;;4999619;28;19995;-77
2023/04/24 01:50:40;;;;;;;;;;;11.80;65.60;;;;;;5008872;28;19983;-76
2023/04/24 01:53:06;;;;;;;;;;;11.80;65.60;;;;;;4996876;28;20028;-76
2023/04/24 01:55:31;;;;;;;;;;;11.80;65.60;;;;;;4994973;28;20004;-76
2023/04/24 01:57:57;;;;;;;;;;;11.80;65.60;;;;;;5011543;28;19925;-76
2023/04/24 02:00:22;;;;;;;;;;;11.80;65.60;;;;;;5009353;28;19925;-77
2023/04/24 02:02:47;;;;;;;;;;;11.80;65.60;;;;;;5029021;28;19925;-76
2023/04/24 02:05:13;;;;;;;;;;;11.70;65.60;;;;;;4993394;28;19922;-77
2023/04/24 02:07:39;;;;;;;;;;;11.70;65.60;;;;;;4996948;28;19925;-76
2023/04/24 02:10:05;;;;;;;;;;;11.70;65.60;;;;;;5016636;28;19967;-76
2023/04/24 02:12:30;;;;;;;;;;;11.70;65.70;;;;;;5012798;28;20332;-76
2023/04/24 02:14:56;;;;;;;;;;;11.70;65.70;;;;;;5012779;28;19943;-76
2023/04/24 02:17:22;;;;;;;;;;;11.70;65.70;;;;;;4989829;28;19921;-76
2023/04/24 02:19:47;;;;;;;;;;;11.70;65.70;;;;;;5024234;28;19932;-76
2023/04/24 02:22:13;;;;;;;;;;;11.70;65.70;;;;;;5030807;28;19977;-77
2023/04/24 02:24:38;;;;;;;;;;;11.70;65.70;;;;;;5014904;28;19921;-77
2023/04/24 02:27:04;;;;;;;;;;;11.70;65.70;;;;;;5012621;28;19963;-77
2023/04/24 02:29:30;;;;;;;;;;;11.70;65.80;;;;;;5029432;28;19928;-76
2023/04/24 02:31:55;;;;;;;;;;;11.70;66.60;;;;;;5031907;28;19921;-76
2023/04/24 02:34:21;;;;;;;;;;;11.70;65.80;;;;;;5029837;28;19921;-76
2023/04/24 02:36:46;;;;;;;;;;;11.70;65.80;;;;;;5031837;28;19952;-76
2023/04/24 02:39:13;;;;;;;;;;;11.70;65.80;;;;;;5028625;28;19925;-76
2023/04/24 02:41:38;;;;;;;;;;;11.70;65.80;;;;;;4994796;28;20040;-77
2023/04/24 02:44:04;;;;;;;;;;;11.70;65.80;;;;;;5030940;28;20143;-76
2023/04/24 02:46:29;;;;;;;;;;;11.70;65.90;;;;;;5030716;28;19925;-77
2023/04/24 02:48:55;;;;;;;;;;;11.60;65.80;;;;;;5011000;28;19921;-76
2023/04/24 02:51:20;;;;;;;;;;;11.60;66.80;;;;;;5032088;28;20391;-77
2023/04/24 02:53:46;;;;;;;;;;;11.60;65.90;;;;;;5014767;28;19928;-77
2023/04/24 02:56:14;;;;;;;;;;;11.60;65.90;;;;;;5030728;28;19928;-76
2023/04/24 02:58:40;;;;;;;;;;;11.60;66.00;;;;;;5032367;28;19928;-77
2023/04/24 03:01:05;;;;;;;;;;;11.60;66.00;;;;;;5016092;28;19981;-77
2023/04/24 03:03:31;;;;;;;;;;;11.50;65.90;;;;;;5031051;28;19989;-77
2023/04/24 03:05:57;;;;;;;;;;;11.50;65.90;;;;;;5014278;28;19956;-77
2023/04/24 03:08:22;;;;;;;;;;;11.50;66.00;;;;;;5016502;28;20296;-76
2023/04/24 03:10:48;;;;;;;;;;;11.50;66.00;;;;;;5012862;28;19933;-77
2023/04/24 03:13:13;;;;;;;;;;;11.50;66.00;;;;;;5024939;28;20350;-77
2023/04/24 03:15:39;;;;;;;;;;;11.50;66.00;;;;;;5014506;28;19952;-77
2023/04/24 03:18:04;;;;;;;;;;;11.50;66.00;;;;;;5010511;28;19971;-76
2023/04/24 03:20:30;;;;;;;;;;;11.40;66.00;;;;;;5009717;28;19929;-77
2023/04/24 03:22:56;;;;;;;;;;;11.40;66.10;;;;;;4991756;28;20051;-77
2023/04/24 03:25:22;;;;;;;;;;;11.40;66.10;;;;;;5009734;28;19922;-77
2023/04/24 03:27:47;;;;;;;;;;;11.40;66.10;;;;;;5004022;28;19921;-77
2023/04/24 03:30:13;;;;;;;;;;;11.40;66.10;;;;;;5011092;28;20016;-77
2023/04/24 03:32:39;;;;;;;;;;;11.40;66.20;;;;;;4994908;28;19917;-77
2023/04/24 03:35:06;;;;;;;;;;;11.40;66.20;;;;;;5013863;28;19917;-76
2023/04/24 03:37:31;;;;;;;;;;;11.30;66.20;;;;;;5010537;28;19922;-78
2023/04/24 03:39:57;;;;;;;;;;;11.30;66.20;;;;;;5015894;28;19921;-77
2023/04/24 03:42:22;;;;;;;;;;;11.30;66.20;;;;;;5013269;28;19932;-77
2023/04/24 03:44:48;;;;;;;;;;;11.30;66.30;;;;;;5026755;28;20492;-78
2023/04/24 03:47:13;;;;;;;;;;;11.30;66.30;;;;;;5011865;28;20004;-76
2023/04/24 03:49:39;;;;;;;;;;;11.30;66.40;;;;;;5012151;28;19929;-77
2023/04/24 03:52:04;;;;;;;;;;;11.30;66.40;;;;;;5028907;28;19925;-77
2023/04/24 03:54:29;;;;;;;;;;;11.30;66.40;;;;;;5027219;28;19922;-76
2023/04/24 03:56:55;;;;;;;;;;;11.20;66.30;;;;;;5015070;28;20415;-77
2023/04/24 03:59:21;;;;;;;;;;;11.20;66.40;;;;;;5013143;28;20016;-76
2023/04/24 04:01:46;;;;;;;;;;;11.20;66.40;;;;;;5027174;28;19928;-79
2023/04/24 04:04:12;;;;;;;;;;;11.20;66.40;;;;;;5009546;28;20032;-77
2023/04/24 04:06:37;;;;;;;;;;;11.20;66.40;;;;;;5016180;28;19921;-77
2023/04/24 04:09:03;;;;;;;;;;;11.20;66.50;;;;;;5014310;28;19921;-77
2023/04/24 04:11:28;;;;;;;;;;;11.10;66.40;;;;;;5029174;28;19964;-77
2023/04/24 04:13:54;;;;;;;;;;;11.10;66.40;;;;;;5028401;28;19925;-77
2023/04/24 04:16:20;;;;;;;;;;;11.10;66.50;;;;;;5013932;28;19921;-77
2023/04/24 04:18:45;;;;;;;;;;;11.10;66.50;;;;;;5013521;28;19925;-77
2023/04/24 04:21:11;;;;;;;;;;;11.10;66.50;;;;;;4996621;28;19932;-77
2023/04/24 04:23:36;;;;;;;;;;;11.10;66.60;;;;;;5026916;28;20461;-77
2023/04/24 04:26:03;;;;;;;;;;;11.00;66.50;;;;;;5013182;28;20367;-77
2023/04/24 04:28:30;;;;;;;;;;;11.10;66.60;;;;;;5010673;28;19921;-77
2023/04/24 04:30:57;;;;;;;;;;;11.00;66.60;;;;;;4997608;28;20001;-77
2023/04/24 04:33:23;;;;;;;;;;;11.00;66.60;;;;;;5013018;28;19917;-77
2023/04/24 04:35:49;;;;;;;;;;;11.10;66.70;;;;;;5011837;28;19922;-78
2023/04/24 04:38:15;;;;;;;;;;;11.10;66.80;;;;;;5015279;28;19959;-77
2023/04/24 04:40:41;;;;;;;;;;;11.10;66.70;;;;;;5016180;28;19929;-77
2023/04/24 04:43:06;;;;;;;;;;;11.10;66.80;;;;;;5013967;28;19956;-77
2023/04/24 04:45:32;;;;;;;;;;;11.10;66.80;;;;;;5013567;28;19921;-77
2023/04/24 04:48:00;;;;;;;;;;;11.10;66.80;;;;;;5027665;28;19943;-77
2023/04/24 04:50:26;;;;;;;;;;;11.10;66.80;;;;;;5027636;28;19921;-77
2023/04/24 04:52:52;;;;;;;;;;;11.10;66.80;;;;;;5025063;28;19921;-77
2023/04/24 04:55:18;;;;;;;;;;;11.10;66.80;;;;;;5012749;28;19928;-77
2023/04/24 04:57:43;;;;;;;;;;;11.10;66.80;;;;;;5028733;28;20482;-77
2023/04/24 05:00:10;;;;;;;;;;;11.10;66.80;;;;;;5026911;28;19925;-77
2023/04/24 05:02:35;;;;;;;;;;;11.10;66.90;;;;;;5010954;28;19932;-77
2023/04/24 05:05:01;;;;;;;;;;;11.10;66.80;;;;;;5013449;28;19925;-77
2023/04/24 05:07:26;;;;;;;;;;;11.10;67.10;;;;;;5028698;28;20719;-77
2023/04/24 05:09:52;;;;;;;;;;;11.10;66.90;;;;;;4992857;28;20571;-77
2023/04/24 05:12:17;;;;;;;;;;;11.10;66.80;;;;;;5015719;28;19956;-77
2023/04/24 05:14:43;;;;;;;;;;;11.10;66.80;;;;;;5016209;28;20692;-77
2023/04/24 05:17:08;;;;;;;;;;;11.10;66.80;;;;;;4999187;28;19956;-76
2023/04/24 05:19:35;;;;;;;;;;;11.10;66.80;;;;;;4995660;28;19925;-77
2023/04/24 05:22:03;;;;;;;;;;;11.20;66.90;;;;;;5015102;28;19920;-77
2023/04/24 05:24:28;;;;;;;;;;;11.10;66.80;;;;;;5029700;28;19974;-77
2023/04/24 05:26:53;;;;;;;;;;;11.20;66.90;;;;;;5018524;28;19928;-77
2023/04/24 05:29:20;;;;;;;;;;;11.20;66.90;;;;;;4986209;28;19949;-77
2023/04/24 05:31:45;;;;;;;;;;;11.10;66.80;;;;;;4999011;28;20038;-77
2023/04/24 05:34:11;;;;;;;;;;;11.20;67.00;;;;;;5001106;28;20011;-77
2023/04/24 05:36:36;;;;;;;;;;;11.20;66.90;;;;;;5001734;28;19925;-77
2023/04/24 05:39:02;;;;;;;;;;;11.20;66.90;;;;;;4997524;28;19921;-77
2023/04/24 05:41:27;;;;;;;;;;;11.20;66.90;;;;;;5018596;28;19955;-77
2023/04/24 05:43:53;;;;;;;;;;;11.10;66.90;;;;;;5000257;28;20409;-77
2023/04/24 05:46:18;;;;;;;;;;;11.20;67.00;;;;;;4998296;28;20067;-77
2023/04/24 05:48:44;;;;;;;;;;;11.20;66.90;;;;;;4981869;28;19922;-77
2023/04/24 05:51:10;;;;;;;;;;;11.20;66.90;;;;;;4999201;28;20008;-77
2023/04/24 05:53:35;;;;;;;;;;;11.20;66.90;;;;;;5028971;28;19925;-77
2023/04/24 05:56:01;;;;;;;;;;;11.20;66.90;;;;;;4998964;28;20071;-77
2023/04/24 05:58:26;;;;;;;;;;;11.20;66.90;;;;;;5013020;28;19921;-77
2023/04/24 06:00:52;;;;;;;;;;;11.20;66.90;;;;;;4997744;28;19929;-77
2023/04/24 06:03:17;;;;;;;;;;;11.20;67.00;;;;;;4984365;28;20012;-77
2023/04/24 06:05:42;;;;;;;;;;;11.30;67.00;;;;;;4999473;28;20071;-77
2023/04/24 06:08:08;;;;;;;;;;;11.30;66.90;;;;;;5002485;28;19935;-76
2023/04/24 06:10:33;;;;;;;;;;;11.40;66.90;;;;;;4989506;28;20008;-76
2023/04/24 06:13:01;;;;;;;;;;;11.40;66.90;;;;;;5032454;28;19924;-77
2023/04/24 06:15:28;;;;;;;;;;;11.40;66.90;;;;;;5031816;28;20017;-76
2023/04/24 06:17:54;;;;;;;;;;;11.50;66.80;;;;;;5016811;28;19947;-77
2023/04/24 06:20:19;;;;;;;;;;;11.50;66.80;;;;;;5000600;28;19921;-77
2023/04/24 06:22:45;;;;;;;;;;;11.60;66.80;;;;;;5034454;28;20383;-77
2023/04/24 06:25:10;;;;;;;;;;;11.60;66.80;;;;;;5015110;28;19928;-77
2023/04/24 06:27:36;;;;;;;;;;;11.70;66.80;;;;;;5030771;28;19960;-77
2023/04/24 06:30:01;;;;;;;;;;;11.70;66.70;;;;;;5017922;28;19921;-77
2023/04/24 06:32:27;;;;;;;;;;;11.80;66.70;;;;;;5016829;28;19978;-77
2023/04/24 06:34:53;;;;;;;;;;;11.90;66.70;;;;;;4999995;28;20066;-77
2023/04/24 06:37:18;;;;;;;;;;;11.90;66.60;;;;;;5014422;28;19960;-77
2023/04/24 06:39:44;;;;;;;;;;;12.00;67.40;;;;;;5014291;28;20349;-77
2023/04/24 06:42:10;;;;;;;;;;;12.10;66.50;;;;;;5016084;28;19932;-77
2023/04/24 06:44:40;;;;;;;;;;;12.10;66.40;;;;;;4996150;28;19917;-77
2023/04/24 06:47:09;;;;;;;;;;;12.20;66.40;;;;;;5016745;28;19928;-77
2023/04/24 06:49:35;;;;;;;;;;;12.20;66.40;;;;;;5013222;28;19917;-77
2023/04/24 06:52:00;;;;;;;;;;;12.30;66.40;;;;;;5000437;28;19971;-77
2023/04/24 06:54:26;;;;;;;;;;;12.40;66.30;;;;;;5029747;28;19917;-77
2023/04/24 06:56:52;;;;;;;;;;;12.40;66.20;;;;;;5014795;28;19921;-77
2023/04/24 06:59:17;;;;;;;;;;;12.50;66.20;;;;;;5015792;28;19928;-77
2023/04/24 07:01:42;;;;;;;;;;;12.60;66.10;;;;;;5031307;28;20601;-76
2023/04/24 07:04:08;;;;;;;;;;;12.70;66.10;;;;;;5018047;28;19924;-77
2023/04/24 07:06:35;;;;;;;;;;;12.80;66.10;;;;;;5018596;28;19927;-77
2023/04/24 07:09:01;;;;;;;;;;;12.90;66.00;;;;;;5017747;28;19956;-77
2023/04/24 07:11:29;;;;;;;;;;;13.00;65.90;;;;;;5012735;28;20037;-77
2023/04/24 07:13:55;;;;;;;;;;;13.00;65.90;;;;;;5031208;28;20423;-77
2023/04/24 07:16:20;;;;;;;;;;;13.10;65.70;;;;;;5031012;28;19925;-77
2023/04/24 07:18:45;;;;;;;;;;;13.20;65.70;;;;;;5012847;28;19964;-77
2023/04/24 07:21:11;;;;;;;;;;;13.30;65.70;;;;;;5015280;28;19925;-77
2023/04/24 07:23:36;;;;;;;;;;;13.40;65.60;;;;;;5031891;28;19923;-77
2023/04/24 07:26:02;;;;;;;;;;;13.50;65.50;;;;;;5017262;28;19921;-77
2023/04/24 07:28:30;;;;;;;;;;;13.70;65.50;;;;;;5015870;28;20032;-77
2023/04/24 07:30:56;;;;;;;;;;;13.80;65.40;;;;;;4997992;28;19928;-77
2023/04/24 07:33:22;;;;;;;;;;;13.80;65.10;;;;;;5013740;28;19917;-77
2023/04/24 07:35:47;;;;;;;;;;;13.80;64.90;;;;;;5029488;28;19951;-77
2023/04/24 07:38:13;;;;;;;;;;;13.80;65.00;;;;;;5017397;28;20308;-77
2023/04/24 07:40:38;;;;;;;;;;;13.80;64.90;;;;;;5031702;28;19929;-77
2023/04/24 07:43:04;;;;;;;;;;;13.90;64.90;;;;;;5013843;28;19920;-77
2023/04/24 07:45:31;;;;;;;;;;;13.80;64.80;;;;;;5031035;28;20013;-77
2023/04/24 07:47:56;;;;;;;;;;;13.80;64.80;;;;;;5017694;28;19927;-76
2023/04/24 07:50:21;;;;;;;;;;;13.70;64.90;;;;;;5012803;28;19921;-77
2023/04/24 07:52:47;;;;;;;;;;;13.70;64.90;;;;;;4996709;28;20047;-77
2023/04/24 07:55:13;;;;;;;;;;;13.60;64.80;;;;;;5000204;28;19921;-76
2023/04/24 07:57:38;;;;;;;;;;;13.60;64.90;;;;;;5013620;28;19921;-77
2023/04/24 08:00:04;;;;;;;;;;;13.60;64.90;;;;;;5012516;28;19921;-77
2023/04/24 08:02:29;;;;;;;;;;;13.50;65.00;;;;;;5011950;28;20306;-77
2023/04/24 08:04:55;;;;;;;;;;;13.50;64.90;;;;;;4993971;28;19932;-77
2023/04/24 08:07:20;;;;;;;;;;;13.50;64.90;;;;;;5029998;28;19979;-77
2023/04/24 08:09:46;;;;;;;;;;;13.50;64.90;;;;;;5013146;28;19992;-77
2023/04/24 08:12:11;;;;;;;;;;;13.40;64.80;;;;;;5014826;28;20513;-76
2023/04/24 08:14:37;;;;;;;;;;;13.40;64.90;;;;;;5031216;28;19929;-77
2023/04/24 08:17:03;;;;;;;;;;;13.40;65.00;;;;;;5013112;28;19921;-77
2023/04/24 08:19:28;;;;;;;;;;;13.40;65.00;;;;;;5011076;28;19928;-77
2023/04/24 08:21:54;;;;;;;;;;;13.40;65.00;;;;;;5014668;28;19938;-77
2023/04/24 08:24:19;;;;;;;;;;;13.40;65.00;;;;;;5013458;28;20025;-77
2023/04/24 08:26:45;;;;;;;;;;;13.40;64.90;;;;;;5029983;28;19925;-77
2023/04/24 08:29:10;;;;;;;;;;;13.40;64.80;;;;;;5013649;28;20299;-77
2023/04/24 08:31:36;;;;;;;;;;;13.40;64.80;;;;;;5013146;28;19921;-77
2023/04/24 08:34:01;;;;;;;;;;;13.40;64.80;;;;;;5031653;28;19927;-77
2023/04/24 08:36:27;;;;;;;;;;;13.40;64.80;;;;;;5013168;28;19929;-76
2023/04/24 08:38:52;;;;;;;;;;;13.40;64.80;;;;;;5015454;28;19996;-77
2023/04/24 08:41:18;;;;;;;;;;;13.40;64.90;;;;;;5017996;28;19925;-77
2023/04/24 08:43:44;;;;;;;;;;;13.50;64.80;;;;;;5011530;28;20016;-76
2023/04/24 08:46:10;;;;;;;;;;;13.50;64.90;;;;;;5012587;28;19921;-77
2023/04/24 08:48:35;;;;;;;;;;;13.70;64.90;;;;;;5013617;28;19957;-76
2023/04/24 08:51:02;;;;;;;;;;;13.90;64.80;;;;;;5014273;28;19924;-76
2023/04/24 08:53:27;;;;;;;;;;;14.10;64.70;;;;;;4996194;28;19925;-76
2023/04/24 08:55:54;;;;;;;;;;;14.30;64.50;;;;;;5010830;28;20281;-76
2023/04/24 08:58:19;;;;;;;;;;;14.40;64.20;;;;;;5011662;28;19921;-77
2023/04/24 09:00:46;;;;;;;;;;;14.50;64.00;;;;;;5027736;28;19932;-77
2023/04/24 09:03:13;;;;;;;;;;;14.70;63.80;;;;;;5014125;28;19928;-77
2023/04/24 09:05:40;;;;;;;;;;;14.90;63.80;;;;;;5013518;28;19921;-77
2023/04/24 09:08:06;;;;;;;;;;;15.00;63.50;;;;;;5015441;28;20844;-77
2023/04/24 09:10:31;;;;;;;;;;;15.10;63.40;;;;;;5029523;28;20085;-77
2023/04/24 09:12:58;;;;;;;;;;;15.20;63.20;;;;;;5015263;28;19937;-77
2023/04/24 09:15:23;;;;;;;;;;;15.40;63.10;;;;;;5030688;28;19929;-77
2023/04/24 09:17:49;;;;;;;;;;;15.60;63.00;;;;;;5029328;28;19925;-77
2023/04/24 09:20:14;;;;;;;;;;;15.70;62.80;;;;;;5013700;28;20527;-77
2023/04/24 09:22:40;;;;;;;;;;;15.70;62.50;;;;;;5006076;28;20593;-76
2023/04/24 09:25:06;;;;;;;;;;;15.70;62.40;;;;;;5014977;28;19924;-76
2023/04/24 09:27:32;;;;;;;;;;;15.70;62.30;;;;;;5011371;28;19936;-77
2023/04/24 09:29:58;;;;;;;;;;;15.60;62.40;;;;;;4996566;28;20322;-77
2023/04/24 09:32:25;;;;;;;;;;;15.60;62.50;;;;;;5030806;28;20514;-77
2023/04/24 09:35:11;;;;;;;;;;;15.70;62.60;;;;;;5024455;28;19932;-77
2023/04/24 09:37:37;;;;;;;;;;;15.70;62.50;;;;;;5014579;28;19921;-77
2023/04/24 09:40:11;;;;;;;;;;;15.90;62.50;;;;;;5008802;28;19921;-77
2023/04/24 09:42:36;;;;;;;;;;;15.90;62.40;;;;;;5028404;28;19932;-77
2023/04/24 09:45:02;;;;;;;;;;;15.90;62.30;;;;;;5008911;28;19921;-77
2023/04/24 09:47:27;;;;;;;;;;;15.90;62.20;;;;;;5014843;28;19925;-77
2023/04/24 09:49:57;;;;;;;;;;;15.90;62.20;;;;;;5029217;28;20383;-77
2023/04/24 09:52:24;;;;;;;;;;;15.90;62.20;;;;;;5013278;28;19927;-78
2023/04/24 09:54:54;;;;;;;;;;;15.90;62.00;;;;;;5026610;28;19956;-77
2023/04/24 09:57:19;;;;;;;;;;;15.80;62.00;;;;;;5014977;28;19921;-77
2023/04/24 09:59:45;;;;;;;;;;;15.80;62.10;;;;;;5011936;28;19929;-78
2023/04/24 10:02:19;;;;;;;;;;;15.70;62.10;;;;;;5009995;28;19991;-77
2023/04/24 10:04:58;;;;;;;;;;;15.80;62.10;;;;;;5012147;28;19932;-77
2023/04/24 10:07:27;;;;;;;;;;;15.80;62.10;;;;;;5014838;28;19927;-77
2023/04/24 10:09:53;;;;;;;;;;;15.80;62.10;;;;;;5011714;28;20459;-77
2023/04/24 10:12:18;;;;;;;;;;;15.90;62.00;;;;;;5020482;28;19925;-77
2023/04/24 10:14:44;;;;;;;;;;;15.90;61.90;;;;;;5013767;28;20032;-77
2023/04/24 10:17:10;;;;;;;;;;;15.90;61.90;;;;;;4987939;28;20409;-77
2023/04/24 10:19:35;;;;;;;;;;;15.90;61.70;;;;;;5028075;28;19925;-77
2023/04/24 10:22:01;;;;;;;;;;;15.90;61.70;;;;;;4989355;28;20596;-77
2023/04/24 10:24:26;;;;;;;;;;;15.80;61.60;;;;;;4999908;28;20011;-77
2023/04/24 10:26:52;;;;;;;;;;;15.70;61.60;;;;;;5015511;28;19927;-78
2023/04/24 10:29:18;;;;;;;;;;;15.60;61.70;;;;;;4997848;28;19928;-77
2023/04/24 10:31:45;;;;;;;;;;;15.50;61.60;;;;;;4982640;28;19965;-77
2023/04/24 10:34:10;;;;;;;;;;;15.40;61.80;;;;;;5019123;28;19928;-78
2023/04/24 10:36:37;;;;;;;;;;;15.30;61.90;;;;;;4998338;28;19921;-77
2023/04/24 10:39:02;;;;;;;;;;;15.30;62.00;;;;;;4985911;28;19921;-77
2023/04/24 10:41:28;;;;;;;;;;;15.30;61.90;;;;;;4998018;28;19936;-77
2023/04/24 10:44:06;;;;;;;;;;;15.30;62.00;;;;;;5016004;28;19925;-77
2023/04/24 10:46:32;;;;;;;;;;;15.30;62.10;;;;;;4997560;28;19925;-77
2023/04/24 10:48:58;;;;;;;;;;;15.20;62.00;;;;;;5000906;28;19917;-77
2023/04/24 10:51:23;;;;;;;;;;;15.30;62.10;;;;;;4985596;28;19924;-77
2023/04/24 10:53:49;;;;;;;;;;;15.40;62.10;;;;;;5010568;28;19924;-77
2023/04/24 10:56:15;;;;;;;;;;;15.60;62.00;;;;;;5013366;28;19964;-77
2023/04/24 10:58:40;;;;;;;;;;;15.80;61.80;;;;;;5011180;28;19931;-77
2023/04/24 11:01:06;;;;;;;;;;;15.90;61.60;;;;;;5003019;28;19928;-77
2023/04/24 11:03:32;;;;;;;;;;;16.00;61.50;;;;;;4986227;28;21011;-77
2023/04/24 11:05:59;;;;;;;;;;;16.00;61.20;;;;;;5001444;28;20059;-77
2023/04/24 11:08:25;;;;;;;;;;;15.90;61.20;;;;;;4984130;28;19921;-77
2023/04/24 11:10:55;;;;;;;;;;;15.80;60.90;;;;;;4999792;28;20638;-77
2023/04/24 11:13:21;;;;;;;;;;;15.70;61.00;;;;;;4995835;28;19928;-77
2023/04/24 11:15:51;;;;;;;;;;;15.70;61.30;;;;;;5002167;28;19925;-77
2023/04/24 11:18:16;;;;;;;;;;;15.60;61.50;;;;;;4998258;28;19928;-76
2023/04/24 11:20:43;;;;;;;;;;;15.70;61.60;;;;;;4986056;28;19922;-77
2023/04/24 11:23:08;;;;;;;;;;;15.80;61.70;;;;;;5014220;28;21762;-77
2023/04/24 11:25:34;;;;;;;;;;;16.10;61.50;;;;;;4985385;28;20145;-77
2023/04/24 11:28:03;;;;;;;;;;;16.30;61.30;;;;;;4982721;28;19924;-77
2023/04/24 11:30:28;;;;;;;;;;;16.50;60.90;;;;;;4999438;28;19921;-77
2023/04/24 11:32:54;;;;;;;;;;;16.60;60.40;;;;;;5016200;28;19925;-77
2023/04/24 11:35:28;;;;;;;;;;;16.60;60.50;;;;;;4983734;28;20411;-77
2023/04/24 11:37:53;;;;;;;;;;;16.70;60.30;;;;;;5019363;28;19928;-78
2023/04/24 11:40:22;;;;;;;;;;;16.80;60.40;;;;;;4983266;28;19921;-77
2023/04/24 11:42:48;;;;;;;;;;;16.90;60.30;;;;;;5004134;28;20014;-77
2023/04/24 11:45:18;;;;;;;;;;;16.90;60.10;;;;;;4996224;28;19921;-76
2023/04/24 11:47:43;;;;;;;;;;;17.00;59.90;;;;;;4982400;28;19921;-77
2023/04/24 11:50:10;;;;;;;;;;;16.90;59.90;;;;;;5004470;28;19925;-77
2023/04/24 11:52:39;;;;;;;;;;;17.00;60.00;;;;;;4986419;28;19928;-77
2023/04/24 11:55:06;;;;;;;;;;;17.20;60.00;;;;;;5003251;28;19948;-77
2023/04/24 11:57:36;;;;;;;;;;;17.30;59.90;;;;;;4992095;28;20205;-77
2023/04/24 12:00:02;;;;;;;;;;;17.50;59.90;;;;;;4996059;28;20058;-78
2023/04/24 12:02:28;;;;;;;;;;;17.70;59.70;;;;;;5005772;28;19932;-77
2023/04/24 12:04:53;;;;;;;;;;;18.00;59.50;;;;;;5004757;28;19921;-78
2023/04/24 12:07:19;;;;;;;;;;;18.10;59.30;;;;;;5008917;28;20386;-78
2023/04/24 12:09:45;;;;;;;;;;;18.30;59.10;;;;;;5002071;28;20038;-77
2023/04/24 12:12:11;;;;;;;;;;;18.40;58.80;;;;;;5003901;28;20479;-78
2023/04/24 12:14:55;;;;;;;;;;;18.60;58.70;;;;;;5008384;28;20032;-77
2023/04/24 12:17:26;;;;;;;;;;;18.60;58.60;;;;;;5018357;28;19924;-78
2023/04/24 12:19:53;;;;;;;;;;;18.50;58.60;;;;;;5010392;28;20461;-77
2023/04/24 12:22:18;;;;;;;;;;;18.50;58.50;;;;;;5007058;28;20358;-78
2023/04/24 12:25:00;;;;;;;;;;;18.40;58.60;;;;;;5000959;28;19921;-78
2023/04/24 12:27:26;;;;;;;;;;;18.30;59.50;;;;;;5005350;28;19960;-77
2023/04/24 12:29:53;;;;;;;;;;;18.20;59.00;;;;;;5018215;28;19929;-77
2023/04/24 12:32:18;;;;;;;;;;;18.10;59.00;;;;;;5017828;28;20008;-78
2023/04/24 12:34:44;;;;;;;;;;;17.90;59.40;;;;;;5004608;28;20043;-78
2023/04/24 12:37:10;;;;;;;;;;;17.70;59.00;;;;;;5018115;28;20425;-77
2023/04/24 12:39:36;;;;;;;;;;;17.60;59.20;;;;;;5008970;28;20686;-77
2023/04/24 12:42:01;;;;;;;;;;;17.50;59.30;;;;;;5024323;28;19925;-78
2023/04/24 12:44:34;;;;;;;;;;;17.40;59.40;;;;;;5004402;28;19917;-79
2023/04/24 12:47:02;;;;;;;;;;;17.20;59.50;;;;;;5002222;28;20021;-78
2023/04/24 12:49:30;;;;;;;;;;;17.00;59.70;;;;;;5006368;28;19921;-78
2023/04/24 12:51:55;;;;;;;;;;;16.80;59.80;;;;;;4992309;28;19924;-77
2023/04/24 12:54:21;;;;;;;;;;;16.80;60.10;;;;;;5021119;28;19921;-78
2023/04/24 12:56:46;;;;;;;;;;;16.70;60.20;;;;;;5002547;28;19951;-78
2023/04/24 12:59:12;;;;;;;;;;;16.50;60.30;;;;;;5004395;28;19920;-78
2023/04/24 13:01:37;;;;;;;;;;;16.50;60.40;;;;;;5024227;28;20015;-78
2023/04/24 13:04:03;;;;;;;;;;;16.40;60.40;;;;;;5021129;28;19928;-78
2023/04/24 13:06:28;;;;;;;;;;;16.30;60.50;;;;;;5024465;28;19917;-78
2023/04/24 13:08:54;;;;;;;;;;;16.30;60.60;;;;;;5025539;28;20378;-78
2023/04/24 13:11:21;;;;;;;;;;;16.30;60.70;;;;;;5011304;28;19929;-78
2023/04/24 13:13:46;;;;;;;;;;;16.30;60.80;;;;;;5020224;28;19925;-78
2023/04/24 13:16:14;;;;;;;;;;;16.30;60.80;;;;;;5001237;28;21809;-78
2023/04/24 13:18:39;;;;;;;;;;;16.30;60.80;;;;;;5032141;28;19921;-78
2023/04/24 13:21:05;;;;;;;;;;;16.40;60.90;;;;;;5013981;28;20743;-78
2023/04/24 13:23:30;;;;;;;;;;;16.40;60.80;;;;;;5015530;28;19928;-78
2023/04/24 13:25:58;;;;;;;;;;;16.40;60.80;;;;;;5010792;28;19948;-77
2023/04/24 13:28:26;;;;;;;;;;;16.40;60.80;;;;;;5013952;28;19929;-77
2023/04/24 13:30:52;;;;;;;;;;;16.40;60.80;;;;;;5010915;28;20425;-78
2023/04/24 13:33:17;;;;;;;;;;;16.40;60.80;;;;;;5006771;28;19925;-77
2023/04/24 13:35:43;;;;;;;;;;;16.40;60.80;;;;;;5027881;28;19921;-76
2023/04/24 13:38:08;;;;;;;;;;;16.30;60.80;;;;;;5013531;28;19990;-77
2023/04/24 13:40:34;;;;;;;;;;;16.30;60.80;;;;;;5011871;28;19922;-79
2023/04/24 13:43:00;;;;;;;;;;;16.20;60.90;;;;;;4996397;28;19925;-78
2023/04/24 13:45:26;;;;;;;;;;;16.20;60.90;;;;;;5026333;28;19956;-78
2023/04/24 13:47:52;;;;;;;;;;;16.10;61.00;;;;;;5011804;28;20016;-77
2023/04/24 13:50:17;;;;;;;;;;;15.90;60.80;;;;;;5014043;28;19921;-77
2023/04/24 13:52:43;;;;;;;;;;;15.80;61.00;;;;;;5012213;28;19929;-77
2023/04/24 13:55:08;;;;;;;;;;;15.70;62.10;;;;;;5008801;28;19926;-77
2023/04/24 13:57:34;;;;;;;;;;;15.60;61.50;;;;;;5010845;28;20485;-77
2023/04/24 14:00:01;;;;;;;;;;;15.60;61.50;;;;;;5008616;28;19936;-77
2023/04/24 14:02:27;;;;;;;;;;;15.60;61.60;;;;;;5007275;28;19929;-78
2023/04/24 14:04:52;;;;;;;;;;;15.60;61.50;;;;;;4994011;28;20017;-77
2023/04/24 14:07:18;;;;;;;;;;;15.60;61.70;;;;;;5014508;28;19925;-78
2023/04/24 14:09:43;;;;;;;;;;;15.70;61.70;;;;;;5011964;28;19967;-77